createdAt,value
2023-03-12T00:01:21.062Z,15.90
2023-03-12T00:06:18.768Z,16.80
2023-03-12T00:11:18.320Z,14.63
2023-03-12T00:16:15.845Z,13.02
2023-03-12T00:21:12.334Z,13.63
2023-03-12T00:26:12.148Z,11.07
2023-03-12T00:31:27.463Z,11.38
2023-03-12T00:36:26.986Z,13.60
2023-03-12T00:41:24.554Z,14.68
2023-03-12T00:46:21.981Z,9.55
2023-03-12T00:51:19.157Z,16.65
2023-03-12T00:56:15.622Z,14.98
2023-03-12T01:01:12.499Z,12.75
2023-03-12T01:06:09.334Z,14.00
2023-03-12T01:11:05.806Z,10.70
2023-03-12T01:16:02.404Z,13.55
2023-03-12T01:20:59.339Z,12.57
2023-03-12T01:25:55.841Z,17.73
2023-03-12T01:30:52.511Z,16.65
2023-03-12T01:35:49.066Z,17.40
2023-03-12T01:40:45.609Z,15.43
2023-03-12T01:46:01.075Z,20.70
2023-03-12T01:50:59.480Z,15.25
2023-03-12T01:55:57.311Z,15.93
2023-03-12T02:00:54.785Z,17.80
2023-03-12T02:06:04.639Z,18.50
2023-03-12T02:11:01.042Z,20.02
2023-03-12T02:15:57.503Z,19.60
2023-03-12T02:21:18.800Z,15.82
2023-03-12T02:26:16.509Z,19.90
2023-03-12T02:31:17.628Z,13.82
2023-03-12T02:36:14.243Z,15.90
2023-03-12T02:41:22.456Z,21.00
2023-03-12T02:46:19.055Z,16.77
2023-03-12T02:51:15.537Z,18.13
2023-03-12T02:56:12.053Z,20.45
2023-03-12T03:01:08.462Z,19.15
2023-03-12T03:06:05.078Z,19.88
2023-03-12T03:11:02.980Z,17.38
2023-03-12T03:16:01.932Z,14.77
2023-03-12T03:21:04.970Z,14.75
2023-03-12T03:26:01.605Z,14.68
2023-03-12T03:31:01.311Z,15.00
2023-03-12T03:35:59.565Z,12.88
2023-03-12T03:40:56.110Z,16.08
2023-03-12T03:46:00.269Z,13.20
2023-03-12T03:51:01.248Z,12.48
2023-03-12T03:55:57.729Z,13.50
2023-03-12T04:00:54.250Z,13.10
2023-03-12T04:05:55.987Z,12.93
2023-03-12T04:10:52.651Z,13.05
2023-03-12T04:15:51.743Z,14.15
2023-03-12T04:20:48.274Z,14.25
2023-03-12T04:25:44.643Z,10.07
2023-03-12T04:30:41.098Z,14.98
2023-03-12T04:35:37.560Z,14.07
2023-03-12T04:40:34.173Z,13.82
2023-03-12T04:45:30.604Z,13.45
2023-03-12T04:50:27.029Z,19.88
2023-03-12T04:55:23.513Z,16.10
2023-03-12T05:00:20.102Z,14.00
2023-03-12T05:05:16.494Z,15.60
2023-03-12T05:10:12.984Z,16.02
2023-03-12T05:15:09.871Z,14.38
2023-03-12T05:20:06.704Z,16.40
2023-03-12T05:25:03.830Z,13.27
2023-03-12T05:30:00.224Z,20.35
2023-03-12T05:34:56.615Z,15.10
2023-03-12T05:39:54.567Z,23.65
2023-03-12T05:44:51.433Z,14.27
2023-03-12T05:49:47.821Z,13.35
2023-03-12T05:54:44.190Z,18.95
2023-03-12T05:59:40.563Z,17.73
2023-03-12T06:04:36.978Z,13.38
2023-03-12T06:09:33.450Z,15.45
2023-03-12T06:14:29.987Z,14.35
2023-03-12T06:19:26.434Z,17.08
2023-03-12T06:24:22.838Z,14.23
2023-03-12T06:29:19.267Z,16.88
2023-03-12T06:34:16.789Z,16.92
2023-03-12T06:39:13.284Z,20.20
2023-03-12T06:44:10.820Z,16.35
2023-03-12T06:49:07.457Z,13.38
2023-03-12T06:54:04.352Z,14.27
2023-03-12T06:59:00.845Z,14.77
2023-03-12T07:03:57.294Z,17.15
2023-03-12T07:08:53.730Z,15.40
2023-03-12T07:13:51.478Z,12.18
2023-03-12T07:18:48.195Z,14.00
2023-03-12T07:23:44.576Z,15.02
2023-03-12T07:28:41.559Z,12.35
2023-03-12T07:33:38.828Z,11.82
2023-03-12T07:38:35.309Z,15.95
2023-03-12T07:43:31.955Z,12.27
2023-03-12T07:48:28.493Z,18.23
2023-03-12T07:53:24.928Z,12.82
2023-03-12T07:58:21.453Z,9.77
2023-03-12T08:03:18.158Z,9.65
2023-03-12T08:08:14.728Z,12.00
2023-03-12T08:13:11.231Z,12.00
2023-03-12T08:18:07.770Z,12.10
2023-03-12T08:23:04.203Z,10.25
2023-03-12T08:28:00.588Z,11.32
2023-03-12T08:32:58.083Z,14.27
2023-03-12T08:37:56.788Z,10.88
2023-03-12T08:42:53.256Z,9.85
2023-03-12T08:47:50.235Z,9.02
2023-03-12T08:52:46.629Z,11.50
2023-03-12T08:57:43.407Z,17.92
2023-03-12T09:02:39.974Z,7.00
2023-03-12T09:07:36.588Z,16.63
2023-03-12T09:12:33.126Z,8.60
2023-03-12T09:17:30.457Z,11.60
2023-03-12T09:22:29.429Z,14.68
2023-03-12T09:27:25.960Z,9.13
2023-03-12T09:32:23.162Z,10.73
2023-03-12T09:37:23.590Z,9.13
2023-03-12T09:42:46.279Z,10.98
2023-03-12T09:47:55.546Z,7.57
2023-03-12T09:53:25.969Z,8.55
2023-03-12T09:58:30.747Z,10.02
2023-03-12T10:03:46.546Z,9.70
2023-03-12T10:08:56.407Z,7.55
2023-03-12T10:14:24.066Z,13.15
2023-03-12T10:19:35.705Z,8.65
2023-03-12T10:24:52.802Z,8.27
2023-03-12T10:29:57.921Z,10.00
2023-03-12T10:35:04.240Z,7.22
2023-03-12T10:40:00.873Z,8.77
2023-03-12T10:45:10.846Z,7.82
2023-03-12T10:50:16.313Z,7.80
2023-03-12T10:55:22.064Z,8.27
2023-03-12T11:00:30.431Z,9.95
2023-03-12T11:05:29.651Z,8.80
2023-03-12T11:10:39.102Z,8.27
2023-03-12T11:15:41.484Z,9.30
2023-03-12T11:20:37.917Z,12.50
2023-03-12T11:25:34.371Z,10.48
2023-03-12T11:30:39.208Z,8.77
2023-03-12T11:36:07.007Z,9.25
2023-03-12T11:41:28.194Z,10.68
2023-03-12T11:46:43.784Z,12.10
2023-03-12T11:51:58.419Z,11.18
2023-03-12T11:57:40.692Z,11.65
2023-03-12T12:02:48.022Z,10.48
2023-03-12T12:08:03.019Z,7.43
2023-03-12T12:13:08.747Z,8.40
2023-03-12T12:18:23.556Z,6.95
2023-03-12T12:23:30.737Z,7.97
2023-03-12T12:28:36.269Z,5.65
2023-03-12T12:33:35.316Z,7.25
2023-03-12T12:38:55.117Z,7.85
2023-03-12T12:44:14.142Z,7.65
2023-03-12T12:49:24.386Z,9.25
2023-03-12T12:54:46.248Z,6.05
2023-03-12T13:00:07.299Z,8.02
2023-03-12T13:05:03.918Z,6.60
2023-03-12T13:10:06.849Z,6.00
2023-03-12T13:15:29.526Z,7.45
2023-03-12T13:20:37.414Z,10.33
2023-03-12T13:26:01.451Z,8.02
2023-03-12T13:31:23.697Z,8.25
2023-03-12T13:36:28.342Z,6.82
2023-03-12T13:41:31.921Z,8.80
2023-03-12T13:46:35.965Z,12.50
2023-03-12T13:51:32.877Z,10.57
2023-03-12T13:56:32.372Z,8.95
2023-03-12T14:01:38.047Z,10.85
2023-03-12T14:07:06.309Z,9.30
2023-03-12T14:12:21.740Z,6.68
2023-03-12T14:17:24.274Z,6.38
2023-03-12T14:27:30.054Z,6.95
2023-03-12T14:32:33.415Z,6.88
2023-03-12T14:37:38.288Z,8.82
2023-03-12T14:42:36.210Z,8.05
2023-03-12T14:47:58.780Z,6.97
2023-03-12T14:53:10.395Z,9.33
2023-03-12T14:58:17.163Z,6.70
2023-03-12T15:03:16.588Z,6.55
2023-03-12T15:08:13.710Z,7.28
2023-03-12T15:13:12.957Z,10.80
2023-03-12T15:18:19.585Z,10.48
2023-03-12T15:23:18.503Z,8.05
2023-03-12T15:28:14.850Z,10.48
2023-03-12T15:33:24.076Z,9.27
2023-03-12T15:38:23.184Z,8.70
2023-03-12T15:43:21.626Z,9.43
2023-03-12T15:48:32.178Z,8.02
2023-03-12T15:53:32.279Z,10.60
2023-03-12T15:58:32.076Z,8.98
2023-03-12T16:03:28.482Z,9.00
2023-03-12T16:08:36.247Z,10.18
2023-03-12T16:13:33.098Z,8.32
2023-03-12T16:18:29.517Z,11.20
2023-03-12T16:23:26.184Z,9.43
2023-03-12T16:28:23.421Z,9.05
2023-03-12T16:33:22.755Z,8.38
2023-03-12T16:38:19.220Z,9.32
2023-03-12T16:43:19.546Z,9.50
2023-03-12T16:48:18.923Z,10.02
2023-03-12T16:53:16.377Z,9.32
2023-03-12T16:58:15.661Z,9.38
2023-03-12T17:03:19.339Z,10.48
2023-03-12T17:08:16.200Z,9.63
2023-03-12T17:13:19.410Z,11.07
2023-03-12T17:18:16.941Z,8.93
2023-03-12T17:23:14.103Z,9.70
2023-03-12T17:28:11.175Z,9.13
2023-03-12T17:33:12.841Z,8.63
2023-03-12T17:38:10.210Z,9.17
2023-03-12T17:43:06.774Z,10.50
2023-03-12T17:48:04.241Z,10.20
2023-03-12T17:53:00.898Z,11.25
2023-03-12T17:57:57.675Z,12.07
2023-03-12T18:02:57.229Z,10.90
2023-03-12T18:07:54.024Z,14.30
2023-03-12T18:12:50.956Z,12.88
2023-03-12T18:17:51.918Z,13.23
2023-03-12T18:22:48.612Z,15.20
2023-03-12T18:27:45.426Z,22.27
2023-03-12T18:32:41.937Z,20.30
2023-03-12T18:37:38.511Z,18.15
2023-03-12T18:42:34.914Z,20.17
2023-03-12T18:47:32.743Z,19.17
2023-03-12T18:52:29.133Z,24.08
2023-03-12T18:57:25.554Z,30.27
2023-03-12T19:02:23.715Z,36.92
2023-03-12T19:07:20.321Z,42.58
2023-03-12T19:12:16.695Z,48.42
2023-03-12T19:17:13.100Z,66.22
2023-03-12T19:22:09.597Z,55.08
2023-03-12T19:27:06.153Z,56.60
2023-03-12T19:32:02.797Z,64.00
2023-03-12T19:36:59.269Z,61.55
2023-03-12T19:41:59.080Z,61.95
2023-03-12T19:46:55.568Z,65.32
2023-03-12T19:51:51.998Z,71.88
2023-03-12T19:56:48.476Z,64.28
2023-03-12T20:01:44.920Z,66.28
2023-03-12T20:06:41.306Z,69.25
2023-03-12T20:11:37.869Z,56.20
2023-03-12T20:16:34.425Z,67.93
2023-03-12T20:21:30.940Z,81.90
2023-03-12T20:26:27.743Z,59.35
2023-03-12T20:31:24.259Z,73.47
2023-03-12T20:36:20.815Z,73.40
2023-03-12T20:41:17.584Z,59.15
2023-03-12T20:46:14.362Z,61.17
2023-03-12T20:51:10.842Z,61.13
2023-03-12T20:56:07.831Z,55.08
2023-03-12T21:01:05.511Z,66.43
2023-03-12T21:06:03.090Z,52.72
2023-03-12T21:10:59.688Z,51.38
2023-03-12T21:15:56.111Z,54.08
2023-03-12T21:20:52.483Z,43.17
2023-03-12T21:25:56.916Z,47.58
2023-03-12T21:30:53.429Z,48.80
2023-03-12T21:35:49.988Z,44.28
2023-03-12T21:40:46.467Z,39.08
2023-03-12T21:45:42.908Z,47.47
2023-03-12T21:50:39.297Z,45.97
2023-03-12T21:55:35.776Z,37.30
2023-03-12T22:00:32.409Z,39.22
2023-03-12T22:05:28.816Z,41.40
2023-03-12T22:10:25.253Z,41.80
2023-03-12T22:15:21.692Z,33.42
2023-03-12T22:20:18.143Z,44.60
2023-03-12T22:25:14.589Z,41.45
2023-03-12T22:30:13.090Z,35.67
2023-03-12T22:35:09.705Z,41.28
2023-03-12T22:40:07.161Z,31.33
2023-03-12T22:45:03.917Z,41.22
2023-03-12T22:50:00.386Z,43.88
2023-03-12T22:54:56.857Z,33.92
2023-03-12T22:59:53.295Z,45.75
2023-03-12T23:04:49.772Z,40.28
2023-03-12T23:09:47.383Z,41.22
2023-03-12T23:14:43.947Z,38.83
2023-03-12T23:19:42.590Z,31.95
2023-03-12T23:24:39.219Z,29.85
2023-03-12T23:29:35.639Z,36.85
2023-03-12T23:34:33.844Z,29.75
2023-03-12T23:39:30.826Z,46.67
2023-03-12T23:44:27.261Z,29.55
2023-03-12T23:49:23.813Z,38.70
2023-03-12T23:54:20.191Z,31.20
2023-03-12T23:59:16.569Z,33.58
